sensor_id;sensor_type;location;lat;lon;timestamp;temperature;humidity
28863;DHT22;15994;51.796;13.006;2023-06-19T00:00:42;18.40;99.90
28863;DHT22;15994;51.796;13.006;2023-06-19T00:03:09;18.30;99.90
28863;DHT22;15994;51.796;13.006;2023-06-19T00:05:35;18.20;99.90
28863;DHT22;15994;51.796;13.006;2023-06-19T00:08:02;18.20;99.90
28863;DHT22;15994;51.796;13.006;2023-06-19T00:10:28;18.00;99.90
28863;DHT22;15994;51.796;13.006;2023-06-19T00:12:55;18.10;99.90
28863;DHT22;15994;51.796;13.006;2023-06-19T00:15:21;18.10;99.90
28863;DHT22;15994;51.796;13.006;2023-06-19T00:17:48;18.20;99.90
28863;DHT22;15994;51.796;13.006;2023-06-19T00:25:10;18.20;99.90
28863;DHT22;15994;51.796;13.006;2023-06-19T00:27:36;18.00;99.90
28863;DHT22;15994;51.796;13.006;2023-06-19T00:30:05;18.00;99.90
28863;DHT22;15994;51.796;13.006;2023-06-19T00:32:32;18.00;99.90
28863;DHT22;15994;51.796;13.006;2023-06-19T00:35:10;18.10;99.90
28863;DHT22;15994;51.796;13.006;2023-06-19T00:37:37;18.10;99.90
28863;DHT22;15994;51.796;13.006;2023-06-19T00:40:04;18.10;99.90
28863;DHT22;15994;51.796;13.006;2023-06-19T00:42:31;18.00;99.90
28863;DHT22;15994;51.796;13.006;2023-06-19T00:44:57;18.00;99.90
28863;DHT22;15994;51.796;13.006;2023-06-19T00:47:24;17.90;99.90
28863;DHT22;15994;51.796;13.006;2023-06-19T00:49:50;17.90;99.90
28863;DHT22;15994;51.796;13.006;2023-06-19T00:52:17;18.00;99.90
28863;DHT22;15994;51.796;13.006;2023-06-19T00:54:44;18.10;99.90
28863;DHT22;15994;51.796;13.006;2023-06-19T00:57:11;18.00;99.90
28863;DHT22;15994;51.796;13.006;2023-06-19T00:59:37;18.10;99.90
28863;DHT22;15994;51.796;13.006;2023-06-19T01:02:04;18.20;99.90
28863;DHT22;15994;51.796;13.006;2023-06-19T01:04:31;18.20;99.90
28863;DHT22;15994;51.796;13.006;2023-06-19T01:07:02;18.20;99.90
28863;DHT22;15994;51.796;13.006;2023-06-19T01:09:47;18.20;99.90
28863;DHT22;15994;51.796;13.006;2023-06-19T01:12:26;18.10;99.90
28863;DHT22;15994;51.796;13.006;2023-06-19T01:15:02;18.00;99.90
28863;DHT22;15994;51.796;13.006;2023-06-19T01:17:30;18.10;99.90
28863;DHT22;15994;51.796;13.006;2023-06-19T01:19:59;18.10;99.90
28863;DHT22;15994;51.796;13.006;2023-06-19T01:22:29;18.20;99.90
28863;DHT22;15994;51.796;13.006;2023-06-19T01:24:56;18.00;99.90
28863;DHT22;15994;51.796;13.006;2023-06-19T01:27:24;18.00;99.90
28863;DHT22;15994;51.796;13.006;2023-06-19T01:29:55;17.90;99.90
28863;DHT22;15994;51.796;13.006;2023-06-19T01:32:56;18.00;99.90
28863;DHT22;15994;51.796;13.006;2023-06-19T01:35:28;17.90;99.90
28863;DHT22;15994;51.796;13.006;2023-06-19T01:37:55;18.00;99.90
28863;DHT22;15994;51.796;13.006;2023-06-19T01:40:23;17.80;99.90
28863;DHT22;15994;51.796;13.006;2023-06-19T01:42:53;17.80;99.90
28863;DHT22;15994;51.796;13.006;2023-06-19T01:45:20;17.80;99.90
28863;DHT22;15994;51.796;13.006;2023-06-19T01:47:47;17.90;99.90
28863;DHT22;15994;51.796;13.006;2023-06-19T01:50:14;17.80;99.90
28863;DHT22;15994;51.796;13.006;2023-06-19T01:52:41;17.90;99.90
28863;DHT22;15994;51.796;13.006;2023-06-19T01:55:08;18.00;99.90
28863;DHT22;15994;51.796;13.006;2023-06-19T01:57:36;17.90;99.90
28863;DHT22;15994;51.796;13.006;2023-06-19T02:00:04;17.90;99.90
28863;DHT22;15994;51.796;13.006;2023-06-19T02:02:31;18.00;99.90
28863;DHT22;15994;51.796;13.006;2023-06-19T02:04:58;18.00;99.90
28863;DHT22;15994;51.796;13.006;2023-06-19T02:07:24;18.00;99.90
28863;DHT22;15994;51.796;13.006;2023-06-19T02:09:51;18.00;99.90
28863;DHT22;15994;51.796;13.006;2023-06-19T02:12:17;17.90;99.90
28863;DHT22;15994;51.796;13.006;2023-06-19T02:14:44;17.90;99.90
28863;DHT22;15994;51.796;13.006;2023-06-19T02:17:10;17.90;99.90
28863;DHT22;15994;51.796;13.006;2023-06-19T02:19:37;17.80;99.90
28863;DHT22;15994;51.796;13.006;2023-06-19T02:22:03;17.70;99.90
28863;DHT22;15994;51.796;13.006;2023-06-19T02:24:30;17.70;99.90
28863;DHT22;15994;51.796;13.006;2023-06-19T02:26:57;17.60;99.90
28863;DHT22;15994;51.796;13.006;2023-06-19T02:29:24;17.50;99.90
28863;DHT22;15994;51.796;13.006;2023-06-19T02:31:50;17.40;99.90
28863;DHT22;15994;51.796;13.006;2023-06-19T02:34:17;17.40;99.90
28863;DHT22;15994;51.796;13.006;2023-06-19T02:36:44;17.40;99.90
28863;DHT22;15994;51.796;13.006;2023-06-19T02:39:12;17.40;99.90
28863;DHT22;15994;51.796;13.006;2023-06-19T02:41:39;17.30;99.90
28863;DHT22;15994;51.796;13.006;2023-06-19T02:44:08;17.40;99.90
28863;DHT22;15994;51.796;13.006;2023-06-19T02:46:35;17.40;99.90
28863;DHT22;15994;51.796;13.006;2023-06-19T02:49:01;17.40;99.90
28863;DHT22;15994;51.796;13.006;2023-06-19T02:51:28;17.40;99.90
28863;DHT22;15994;51.796;13.006;2023-06-19T02:53:54;17.40;99.90
28863;DHT22;15994;51.796;13.006;2023-06-19T02:56:21;17.50;99.90
28863;DHT22;15994;51.796;13.006;2023-06-19T02:58:47;17.50;99.90
28863;DHT22;15994;51.796;13.006;2023-06-19T03:01:14;17.40;99.90
28863;DHT22;15994;51.796;13.006;2023-06-19T03:03:41;17.50;99.90
28863;DHT22;15994;51.796;13.006;2023-06-19T03:06:08;17.50;99.90
28863;DHT22;15994;51.796;13.006;2023-06-19T03:08:35;17.60;99.90
28863;DHT22;15994;51.796;13.006;2023-06-19T03:11:02;17.50;99.90
28863;DHT22;15994;51.796;13.006;2023-06-19T03:13:43;17.60;99.90
28863;DHT22;15994;51.796;13.006;2023-06-19T03:16:10;17.50;99.90
28863;DHT22;15994;51.796;13.006;2023-06-19T03:18:36;17.70;99.90
28863;DHT22;15994;51.796;13.006;2023-06-19T03:21:03;17.70;99.90
28863;DHT22;15994;51.796;13.006;2023-06-19T03:23:29;17.90;99.90
28863;DHT22;15994;51.796;13.006;2023-06-19T03:25:56;17.90;99.90
28863;DHT22;15994;51.796;13.006;2023-06-19T03:28:23;17.90;99.90
28863;DHT22;15994;51.796;13.006;2023-06-19T03:30:50;17.90;99.90
28863;DHT22;15994;51.796;13.006;2023-06-19T03:33:16;17.90;99.90
28863;DHT22;15994;51.796;13.006;2023-06-19T03:35:43;17.90;99.90
28863;DHT22;15994;51.796;13.006;2023-06-19T03:38:09;17.90;99.90
28863;DHT22;15994;51.796;13.006;2023-06-19T03:40:36;18.00;99.90
28863;DHT22;15994;51.796;13.006;2023-06-19T03:43:02;17.90;99.90
28863;DHT22;15994;51.796;13.006;2023-06-19T03:45:29;17.90;99.90
28863;DHT22;15994;51.796;13.006;2023-06-19T03:47:56;17.90;99.90
28863;DHT22;15994;51.796;13.006;2023-06-19T03:50:22;17.90;99.90
28863;DHT22;15994;51.796;13.006;2023-06-19T03:52:49;17.80;99.90
28863;DHT22;15994;51.796;13.006;2023-06-19T03:55:15;17.80;99.90
28863;DHT22;15994;51.796;13.006;2023-06-19T03:57:42;17.90;99.90
28863;DHT22;15994;51.796;13.006;2023-06-19T04:00:09;17.80;99.90
28863;DHT22;15994;51.796;13.006;2023-06-19T04:02:38;17.90;99.90
28863;DHT22;15994;51.796;13.006;2023-06-19T04:05:08;17.80;99.90
28863;DHT22;15994;51.796;13.006;2023-06-19T04:07:34;17.80;99.90
28863;DHT22;15994;51.796;13.006;2023-06-19T04:10:02;18.00;99.90
28863;DHT22;15994;51.796;13.006;2023-06-19T04:12:28;18.00;99.90
28863;DHT22;15994;51.796;13.006;2023-06-19T04:14:55;18.10;99.90
28863;DHT22;15994;51.796;13.006;2023-06-19T04:17:21;18.10;99.90
28863;DHT22;15994;51.796;13.006;2023-06-19T04:19:48;18.10;99.90
28863;DHT22;15994;51.796;13.006;2023-06-19T04:22:14;18.20;99.90
28863;DHT22;15994;51.796;13.006;2023-06-19T04:24:41;18.20;99.90
28863;DHT22;15994;51.796;13.006;2023-06-19T04:27:07;18.30;99.90
28863;DHT22;15994;51.796;13.006;2023-06-19T04:29:34;18.50;99.90
28863;DHT22;15994;51.796;13.006;2023-06-19T04:32:01;18.70;99.90
28863;DHT22;15994;51.796;13.006;2023-06-19T04:34:36;18.80;99.90
28863;DHT22;15994;51.796;13.006;2023-06-19T04:37:02;19.00;99.90
28863;DHT22;15994;51.796;13.006;2023-06-19T04:39:29;19.00;99.90
28863;DHT22;15994;51.796;13.006;2023-06-19T04:41:55;19.00;99.90
28863;DHT22;15994;51.796;13.006;2023-06-19T04:44:22;19.10;99.90
28863;DHT22;15994;51.796;13.006;2023-06-19T04:46:48;19.10;99.90
28863;DHT22;15994;51.796;13.006;2023-06-19T04:49:15;19.10;99.90
28863;DHT22;15994;51.796;13.006;2023-06-19T04:51:41;19.20;99.90
28863;DHT22;15994;51.796;13.006;2023-06-19T04:54:08;19.20;99.90
28863;DHT22;15994;51.796;13.006;2023-06-19T04:56:34;19.20;99.90
28863;DHT22;15994;51.796;13.006;2023-06-19T04:59:01;19.30;99.90
28863;DHT22;15994;51.796;13.006;2023-06-19T05:01:28;19.40;99.90
28863;DHT22;15994;51.796;13.006;2023-06-19T05:03:55;19.40;99.90
28863;DHT22;15994;51.796;13.006;2023-06-19T05:06:23;19.50;99.90
28863;DHT22;15994;51.796;13.006;2023-06-19T05:08:50;19.40;99.90
28863;DHT22;15994;51.796;13.006;2023-06-19T05:11:17;19.60;99.90
28863;DHT22;15994;51.796;13.006;2023-06-19T05:13:44;19.60;99.90
28863;DHT22;15994;51.796;13.006;2023-06-19T05:16:11;19.60;99.90
28863;DHT22;15994;51.796;13.006;2023-06-19T05:18:41;19.70;99.90
28863;DHT22;15994;51.796;13.006;2023-06-19T05:21:09;20.00;99.90
28863;DHT22;15994;51.796;13.006;2023-06-19T05:23:35;20.10;99.90
28863;DHT22;15994;51.796;13.006;2023-06-19T05:26:03;20.20;99.90
28863;DHT22;15994;51.796;13.006;2023-06-19T05:28:30;20.50;99.90
28863;DHT22;15994;51.796;13.006;2023-06-19T05:30:57;20.40;99.90
28863;DHT22;15994;51.796;13.006;2023-06-19T05:33:23;20.50;99.90
28863;DHT22;15994;51.796;13.006;2023-06-19T05:35:50;20.40;99.90
28863;DHT22;15994;51.796;13.006;2023-06-19T05:38:19;20.30;99.90
28863;DHT22;15994;51.796;13.006;2023-06-19T05:40:46;20.40;99.90
28863;DHT22;15994;51.796;13.006;2023-06-19T05:43:12;20.20;99.90
28863;DHT22;15994;51.796;13.006;2023-06-19T05:45:39;20.40;99.90
28863;DHT22;15994;51.796;13.006;2023-06-19T05:48:05;20.50;99.90
28863;DHT22;15994;51.796;13.006;2023-06-19T05:50:32;20.60;99.90
28863;DHT22;15994;51.796;13.006;2023-06-19T05:52:58;20.60;99.90
28863;DHT22;15994;51.796;13.006;2023-06-19T05:55:25;20.70;99.90
28863;DHT22;15994;51.796;13.006;2023-06-19T05:57:53;20.60;99.90
28863;DHT22;15994;51.796;13.006;2023-06-19T06:00:19;20.50;99.90
28863;DHT22;15994;51.796;13.006;2023-06-19T06:02:46;20.50;99.90
28863;DHT22;15994;51.796;13.006;2023-06-19T06:05:13;20.50;99.90
28863;DHT22;15994;51.796;13.006;2023-06-19T06:07:39;20.50;99.90
28863;DHT22;15994;51.796;13.006;2023-06-19T06:10:06;20.40;99.90
28863;DHT22;15994;51.796;13.006;2023-06-19T06:12:35;20.50;99.90
28863;DHT22;15994;51.796;13.006;2023-06-19T06:15:03;20.70;99.90
28863;DHT22;15994;51.796;13.006;2023-06-19T06:17:30;20.80;99.90
28863;DHT22;15994;51.796;13.006;2023-06-19T06:19:57;20.80;99.90
28863;DHT22;15994;51.796;13.006;2023-06-19T06:22:23;21.00;99.90
28863;DHT22;15994;51.796;13.006;2023-06-19T06:24:50;21.10;99.90
28863;DHT22;15994;51.796;13.006;2023-06-19T06:27:18;21.10;99.90
28863;DHT22;15994;51.796;13.006;2023-06-19T06:29:45;21.10;99.90
28863;DHT22;15994;51.796;13.006;2023-06-19T06:32:11;21.20;99.90
28863;DHT22;15994;51.796;13.006;2023-06-19T06:34:38;21.10;99.90
28863;DHT22;15994;51.796;13.006;2023-06-19T06:37:04;21.10;99.90
28863;DHT22;15994;51.796;13.006;2023-06-19T06:39:31;21.20;99.90
28863;DHT22;15994;51.796;13.006;2023-06-19T06:41:57;21.50;99.90
28863;DHT22;15994;51.796;13.006;2023-06-19T06:44:24;21.50;99.90
28863;DHT22;15994;51.796;13.006;2023-06-19T06:46:50;21.60;99.90
28863;DHT22;15994;51.796;13.006;2023-06-19T06:49:17;21.60;99.90
28863;DHT22;15994;51.796;13.006;2023-06-19T06:51:43;21.60;99.90
28863;DHT22;15994;51.796;13.006;2023-06-19T06:54:11;21.80;99.90
28863;DHT22;15994;51.796;13.006;2023-06-19T06:56:37;21.60;99.90
28863;DHT22;15994;51.796;13.006;2023-06-19T06:59:04;21.60;99.90
28863;DHT22;15994;51.796;13.006;2023-06-19T07:01:30;21.60;99.90
28863;DHT22;15994;51.796;13.006;2023-06-19T07:03:57;21.70;99.90
28863;DHT22;15994;51.796;13.006;2023-06-19T07:06:23;21.60;99.90
28863;DHT22;15994;51.796;13.006;2023-06-19T07:08:50;21.70;99.90
28863;DHT22;15994;51.796;13.006;2023-06-19T07:11:16;21.80;99.90
28863;DHT22;15994;51.796;13.006;2023-06-19T07:13:43;21.90;99.90
28863;DHT22;15994;51.796;13.006;2023-06-19T07:16:09;22.00;99.90
28863;DHT22;15994;51.796;13.006;2023-06-19T07:18:36;22.10;99.90
28863;DHT22;15994;51.796;13.006;2023-06-19T07:21:10;22.10;99.90
28863;DHT22;15994;51.796;13.006;2023-06-19T07:23:37;22.30;99.90
28863;DHT22;15994;51.796;13.006;2023-06-19T07:26:03;22.50;99.90
28863;DHT22;15994;51.796;13.006;2023-06-19T07:28:30;22.60;99.90
28863;DHT22;15994;51.796;13.006;2023-06-19T07:30:56;22.70;99.90
28863;DHT22;15994;51.796;13.006;2023-06-19T07:33:23;22.80;99.90
28863;DHT22;15994;51.796;13.006;2023-06-19T07:35:49;22.80;99.90
28863;DHT22;15994;51.796;13.006;2023-06-19T07:38:16;22.90;99.90
28863;DHT22;15994;51.796;13.006;2023-06-19T07:40:42;23.00;99.90
28863;DHT22;15994;51.796;13.006;2023-06-19T07:43:09;23.00;99.90
28863;DHT22;15994;51.796;13.006;2023-06-19T07:45:36;23.10;99.90
28863;DHT22;15994;51.796;13.006;2023-06-19T07:48:02;23.10;99.90
28863;DHT22;15994;51.796;13.006;2023-06-19T07:50:29;23.10;99.90
28863;DHT22;15994;51.796;13.006;2023-06-19T07:52:57;23.10;99.90
28863;DHT22;15994;51.796;13.006;2023-06-19T07:55:24;23.10;99.90
28863;DHT22;15994;51.796;13.006;2023-06-19T07:57:50;23.10;99.90
28863;DHT22;15994;51.796;13.006;2023-06-19T08:00:17;23.20;99.90
28863;DHT22;15994;51.796;13.006;2023-06-19T08:02:44;23.20;99.90
28863;DHT22;15994;51.796;13.006;2023-06-19T08:05:10;23.20;99.90
28863;DHT22;15994;51.796;13.006;2023-06-19T08:07:37;23.30;99.90
28863;DHT22;15994;51.796;13.006;2023-06-19T08:10:04;23.50;99.90
28863;DHT22;15994;51.796;13.006;2023-06-19T08:12:31;23.40;99.60
28863;DHT22;15994;51.796;13.006;2023-06-19T08:14:57;23.60;99.90
28863;DHT22;15994;51.796;13.006;2023-06-19T08:17:24;23.70;99.60
28863;DHT22;15994;51.796;13.006;2023-06-19T08:19:50;24.00;98.10
28863;DHT22;15994;51.796;13.006;2023-06-19T08:22:17;24.10;98.00
28863;DHT22;15994;51.796;13.006;2023-06-19T08:24:43;24.00;98.40
28863;DHT22;15994;51.796;13.006;2023-06-19T08:27:10;24.00;98.20
28863;DHT22;15994;51.796;13.006;2023-06-19T08:29:36;23.90;98.30
28863;DHT22;15994;51.796;13.006;2023-06-19T08:32:03;23.70;98.60
28863;DHT22;15994;51.796;13.006;2023-06-19T08:34:29;23.70;98.60
28863;DHT22;15994;51.796;13.006;2023-06-19T08:36:57;23.50;99.10
28863;DHT22;15994;51.796;13.006;2023-06-19T08:39:23;23.60;99.00
28863;DHT22;15994;51.796;13.006;2023-06-19T08:41:50;23.50;98.80
28863;DHT22;15994;51.796;13.006;2023-06-19T08:44:18;23.40;99.50
28863;DHT22;15994;51.796;13.006;2023-06-19T08:46:45;23.50;98.70
28863;DHT22;15994;51.796;13.006;2023-06-19T08:49:12;23.60;98.00
28863;DHT22;15994;51.796;13.006;2023-06-19T08:51:40;23.70;98.20
28863;DHT22;15994;51.796;13.006;2023-06-19T08:54:08;23.70;98.20
28863;DHT22;15994;51.796;13.006;2023-06-19T08:56:35;23.80;98.40
28863;DHT22;15994;51.796;13.006;2023-06-19T08:59:13;23.80;98.10
28863;DHT22;15994;51.796;13.006;2023-06-19T09:01:46;23.90;98.70
28863;DHT22;15994;51.796;13.006;2023-06-19T09:04:18;23.90;97.90
28863;DHT22;15994;51.796;13.006;2023-06-19T09:06:51;24.10;98.10
28863;DHT22;15994;51.796;13.006;2023-06-19T09:09:19;24.30;97.20
28863;DHT22;15994;51.796;13.006;2023-06-19T09:12:07;24.60;96.90
28863;DHT22;15994;51.796;13.006;2023-06-19T09:14:40;24.80;96.30
28863;DHT22;15994;51.796;13.006;2023-06-19T09:17:12;24.90;97.20
28863;DHT22;15994;51.796;13.006;2023-06-19T09:19:50;25.10;97.30
28863;DHT22;15994;51.796;13.006;2023-06-19T09:22:18;25.30;97.00
28863;DHT22;15994;51.796;13.006;2023-06-19T09:24:45;25.30;96.90
28863;DHT22;15994;51.796;13.006;2023-06-19T09:27:14;25.40;97.40
28863;DHT22;15994;51.796;13.006;2023-06-19T09:29:48;25.40;96.90
28863;DHT22;15994;51.796;13.006;2023-06-19T09:32:23;25.50;97.30
28863;DHT22;15994;51.796;13.006;2023-06-19T09:34:52;25.70;97.70
28863;DHT22;15994;51.796;13.006;2023-06-19T09:37:23;25.60;97.40
28863;DHT22;15994;51.796;13.006;2023-06-19T09:39:55;25.50;96.90
28863;DHT22;15994;51.796;13.006;2023-06-19T09:42:34;25.70;97.40
28863;DHT22;15994;51.796;13.006;2023-06-19T09:45:03;25.80;96.80
28863;DHT22;15994;51.796;13.006;2023-06-19T09:47:35;25.80;97.40
28863;DHT22;15994;51.796;13.006;2023-06-19T09:50:02;25.70;97.10
28863;DHT22;15994;51.796;13.006;2023-06-19T09:52:29;25.80;96.50
28863;DHT22;15994;51.796;13.006;2023-06-19T09:54:56;25.90;96.70
28863;DHT22;15994;51.796;13.006;2023-06-19T09:57:23;26.10;97.50
28863;DHT22;15994;51.796;13.006;2023-06-19T09:59:54;26.30;99.00
28863;DHT22;15994;51.796;13.006;2023-06-19T10:02:22;26.40;98.70
28863;DHT22;15994;51.796;13.006;2023-06-19T10:04:51;26.50;99.70
28863;DHT22;15994;51.796;13.006;2023-06-19T10:07:20;26.80;99.90
28863;DHT22;15994;51.796;13.006;2023-06-19T10:10:10;26.80;99.90
28863;DHT22;15994;51.796;13.006;2023-06-19T10:12:45;27.20;99.90
28863;DHT22;15994;51.796;13.006;2023-06-19T10:17:51;27.20;90.50
28863;DHT22;15994;51.796;13.006;2023-06-19T10:20:32;27.20;88.40
28863;DHT22;15994;51.796;13.006;2023-06-19T10:23:03;27.30;87.30
28863;DHT22;15994;51.796;13.006;2023-06-19T10:25:33;27.50;89.20
28863;DHT22;15994;51.796;13.006;2023-06-19T10:28:00;27.80;88.60
28863;DHT22;15994;51.796;13.006;2023-06-19T10:30:27;27.60;85.60
28863;DHT22;15994;51.796;13.006;2023-06-19T10:32:54;27.70;85.40
28863;DHT22;15994;51.796;13.006;2023-06-19T10:35:21;27.90;88.50
28863;DHT22;15994;51.796;13.006;2023-06-19T10:37:49;28.00;85.80
28863;DHT22;15994;51.796;13.006;2023-06-19T10:40:17;28.00;84.50
28863;DHT22;15994;51.796;13.006;2023-06-19T10:42:44;28.10;84.90
28863;DHT22;15994;51.796;13.006;2023-06-19T10:45:12;28.20;87.40
28863;DHT22;15994;51.796;13.006;2023-06-19T10:47:41;28.40;87.50
28863;DHT22;15994;51.796;13.006;2023-06-19T10:50:15;28.40;91.60
28863;DHT22;15994;51.796;13.006;2023-06-19T10:52:45;28.80;93.40
28863;DHT22;15994;51.796;13.006;2023-06-19T10:55:13;28.80;90.10
28863;DHT22;15994;51.796;13.006;2023-06-19T10:57:44;29.10;90.30
28863;DHT22;15994;51.796;13.006;2023-06-19T11:00:11;29.20;91.40
28863;DHT22;15994;51.796;13.006;2023-06-19T11:02:41;29.50;94.00
28863;DHT22;15994;51.796;13.006;2023-06-19T11:05:11;29.30;94.50
28863;DHT22;15994;51.796;13.006;2023-06-19T11:07:39;29.30;95.00
28863;DHT22;15994;51.796;13.006;2023-06-19T11:10:06;29.40;94.00
28863;DHT22;15994;51.796;13.006;2023-06-19T11:12:33;29.20;93.90
28863;DHT22;15994;51.796;13.006;2023-06-19T11:15:03;29.20;93.40
28863;DHT22;15994;51.796;13.006;2023-06-19T11:17:30;29.30;93.20
28863;DHT22;15994;51.796;13.006;2023-06-19T11:19:57;29.20;94.30
28863;DHT22;15994;51.796;13.006;2023-06-19T11:22:39;29.40;92.90
28863;DHT22;15994;51.796;13.006;2023-06-19T11:25:08;29.00;92.60
28863;DHT22;15994;51.796;13.006;2023-06-19T11:27:37;29.30;93.00
28863;DHT22;15994;51.796;13.006;2023-06-19T11:30:05;29.30;92.40
28863;DHT22;15994;51.796;13.006;2023-06-19T11:32:37;29.20;92.70
28863;DHT22;15994;51.796;13.006;2023-06-19T11:35:11;29.00;92.40
28863;DHT22;15994;51.796;13.006;2023-06-19T11:37:41;28.90;91.70
28863;DHT22;15994;51.796;13.006;2023-06-19T11:40:09;28.90;93.20
28863;DHT22;15994;51.796;13.006;2023-06-19T11:42:52;29.00;92.00
28863;DHT22;15994;51.796;13.006;2023-06-19T11:45:20;29.20;92.20
28863;DHT22;15994;51.796;13.006;2023-06-19T11:47:47;29.30;92.00
28863;DHT22;15994;51.796;13.006;2023-06-19T11:50:15;29.30;91.10
28863;DHT22;15994;51.796;13.006;2023-06-19T11:52:43;29.10;91.40
28863;DHT22;15994;51.796;13.006;2023-06-19T11:55:10;29.20;91.20
28863;DHT22;15994;51.796;13.006;2023-06-19T11:57:38;29.20;91.70
28863;DHT22;15994;51.796;13.006;2023-06-19T12:00:13;29.20;92.30
28863;DHT22;15994;51.796;13.006;2023-06-19T12:02:40;29.30;91.10
28863;DHT22;15994;51.796;13.006;2023-06-19T12:05:06;29.40;91.40
28863;DHT22;15994;51.796;13.006;2023-06-19T12:07:33;29.50;91.30
28863;DHT22;15994;51.796;13.006;2023-06-19T12:10:00;29.00;91.40
28863;DHT22;15994;51.796;13.006;2023-06-19T12:12:28;29.20;91.70
28863;DHT22;15994;51.796;13.006;2023-06-19T12:14:55;29.30;91.40
28863;DHT22;15994;51.796;13.006;2023-06-19T12:17:22;29.40;91.80
28863;DHT22;15994;51.796;13.006;2023-06-19T12:19:48;29.60;91.70
28863;DHT22;15994;51.796;13.006;2023-06-19T12:22:15;29.80;91.20
28863;DHT22;15994;51.796;13.006;2023-06-19T12:24:42;30.10;91.20
28863;DHT22;15994;51.796;13.006;2023-06-19T12:27:08;30.10;91.40
28863;DHT22;15994;51.796;13.006;2023-06-19T12:29:35;30.20;91.60
28863;DHT22;15994;51.796;13.006;2023-06-19T12:32:02;30.00;90.60
28863;DHT22;15994;51.796;13.006;2023-06-19T12:34:29;30.20;91.90
28863;DHT22;15994;51.796;13.006;2023-06-19T12:36:55;30.00;90.80
28863;DHT22;15994;51.796;13.006;2023-06-19T12:39:23;30.40;91.20
28863;DHT22;15994;51.796;13.006;2023-06-19T12:41:50;30.30;91.00
28863;DHT22;15994;51.796;13.006;2023-06-19T12:44:18;30.30;90.90
28863;DHT22;15994;51.796;13.006;2023-06-19T12:46:44;30.10;90.50
28863;DHT22;15994;51.796;13.006;2023-06-19T12:49:11;30.40;90.90
28863;DHT22;15994;51.796;13.006;2023-06-19T12:51:37;30.40;91.00
28863;DHT22;15994;51.796;13.006;2023-06-19T12:54:04;30.40;91.90
28863;DHT22;15994;51.796;13.006;2023-06-19T12:56:30;30.40;91.60
28863;DHT22;15994;51.796;13.006;2023-06-19T12:58:57;30.60;90.30
28863;DHT22;15994;51.796;13.006;2023-06-19T13:01:23;30.60;92.80
28863;DHT22;15994;51.796;13.006;2023-06-19T13:03:50;30.30;92.70
28863;DHT22;15994;51.796;13.006;2023-06-19T13:06:16;30.20;93.00
28863;DHT22;15994;51.796;13.006;2023-06-19T13:08:44;29.80;92.80
28863;DHT22;15994;51.796;13.006;2023-06-19T13:11:11;29.80;92.60
28863;DHT22;15994;51.796;13.006;2023-06-19T13:13:38;29.60;93.40
28863;DHT22;15994;51.796;13.006;2023-06-19T13:16:04;29.50;93.30
28863;DHT22;15994;51.796;13.006;2023-06-19T13:18:31;29.80;93.50
28863;DHT22;15994;51.796;13.006;2023-06-19T13:20:57;29.70;93.50
28863;DHT22;15994;51.796;13.006;2023-06-19T13:23:24;29.20;93.50
28863;DHT22;15994;51.796;13.006;2023-06-19T13:25:50;28.80;93.40
28863;DHT22;15994;51.796;13.006;2023-06-19T13:28:17;29.10;93.40
28863;DHT22;15994;51.796;13.006;2023-06-19T13:30:43;29.30;93.00
28863;DHT22;15994;51.796;13.006;2023-06-19T13:33:10;29.30;92.80
28863;DHT22;15994;51.796;13.006;2023-06-19T13:35:37;29.40;92.80
28863;DHT22;15994;51.796;13.006;2023-06-19T13:38:03;29.50;92.80
28863;DHT22;15994;51.796;13.006;2023-06-19T13:40:30;29.50;92.80
28863;DHT22;15994;51.796;13.006;2023-06-19T13:42:56;29.30;92.80
28863;DHT22;15994;51.796;13.006;2023-06-19T13:45:24;29.40;92.70
28863;DHT22;15994;51.796;13.006;2023-06-19T13:47:51;29.00;92.80
28863;DHT22;15994;51.796;13.006;2023-06-19T13:50:18;29.10;92.90
28863;DHT22;15994;51.796;13.006;2023-06-19T13:52:45;29.20;92.70
28863;DHT22;15994;51.796;13.006;2023-06-19T13:55:13;29.50;92.50
28863;DHT22;15994;51.796;13.006;2023-06-19T13:57:40;29.30;92.50
28863;DHT22;15994;51.796;13.006;2023-06-19T14:00:08;29.50;93.00
28863;DHT22;15994;51.796;13.006;2023-06-19T14:02:39;30.10;92.30
28863;DHT22;15994;51.796;13.006;2023-06-19T14:05:07;30.40;92.40
28863;DHT22;15994;51.796;13.006;2023-06-19T14:07:34;30.60;91.90
28863;DHT22;15994;51.796;13.006;2023-06-19T14:10:02;30.80;91.20
28863;DHT22;15994;51.796;13.006;2023-06-19T14:12:30;30.80;91.10
28863;DHT22;15994;51.796;13.006;2023-06-19T14:14:57;31.10;91.80
28863;DHT22;15994;51.796;13.006;2023-06-19T14:17:23;31.00;92.30
28863;DHT22;15994;51.796;13.006;2023-06-19T14:19:50;30.90;91.70
28863;DHT22;15994;51.796;13.006;2023-06-19T14:22:16;30.90;91.60
28863;DHT22;15994;51.796;13.006;2023-06-19T14:24:44;30.70;91.70
28863;DHT22;15994;51.796;13.006;2023-06-19T14:27:10;30.00;92.10
28863;DHT22;15994;51.796;13.006;2023-06-19T14:29:37;29.70;91.60
28863;DHT22;15994;51.796;13.006;2023-06-19T14:32:04;29.70;92.00
28863;DHT22;15994;51.796;13.006;2023-06-19T14:34:30;29.80;92.00
28863;DHT22;15994;51.796;13.006;2023-06-19T14:36:57;30.10;91.40
28863;DHT22;15994;51.796;13.006;2023-06-19T14:39:23;30.00;90.70
28863;DHT22;15994;51.796;13.006;2023-06-19T14:41:50;30.00;91.50
28863;DHT22;15994;51.796;13.006;2023-06-19T14:44:17;30.20;91.50
28863;DHT22;15994;51.796;13.006;2023-06-19T14:46:43;30.10;91.50
28863;DHT22;15994;51.796;13.006;2023-06-19T14:49:11;30.00;91.70
28863;DHT22;15994;51.796;13.006;2023-06-19T14:51:39;30.20;91.60
28863;DHT22;15994;51.796;13.006;2023-06-19T14:54:05;29.70;91.70
28863;DHT22;15994;51.796;13.006;2023-06-19T14:56:32;29.80;91.50
28863;DHT22;15994;51.796;13.006;2023-06-19T14:58:58;29.80;91.50
28863;DHT22;15994;51.796;13.006;2023-06-19T15:01:25;30.20;91.40
28863;DHT22;15994;51.796;13.006;2023-06-19T15:03:52;30.60;91.60
28863;DHT22;15994;51.796;13.006;2023-06-19T15:06:18;30.80;91.60
28863;DHT22;15994;51.796;13.006;2023-06-19T15:08:45;31.20;91.70
28863;DHT22;15994;51.796;13.006;2023-06-19T19:06:38;27.60;87.70
28863;DHT22;15994;51.796;13.006;2023-06-19T19:09:05;27.60;88.40
28863;DHT22;15994;51.796;13.006;2023-06-19T19:11:33;27.60;87.60
28863;DHT22;15994;51.796;13.006;2023-06-19T19:13:59;27.50;88.50
28863;DHT22;15994;51.796;13.006;2023-06-19T19:16:26;26.90;89.10
28863;DHT22;15994;51.796;13.006;2023-06-19T19:18:52;26.90;89.30
28863;DHT22;15994;51.796;13.006;2023-06-19T19:21:19;26.90;90.00